Terminal Aerodrome Forecast
Issued by NWS Quad Cities IA IL

Current Version | Previous Version | Text Only | Print | Product List | Glossary On
Versions: 1 2 3 4 5 6 7 8 9 10 11 12 13 14 15 16 17 18 19 20 21
778
FTUS43 KDVN 080345 AAA
TAFDBQ
TAF AMD
KDBQ 080345Z 0804/0824 27015KT P6SM BKN015 OVC030
     FM080500 29016G25KT P6SM VCSH SCT015 OVC025
      TEMPO 0805/0809 5SM -SN BKN020 OVC030
     FM080900 31017G27KT 5SM -SHSN SCT009 OVC020
     FM081500 32019G29KT 3SM -SHSN OVC015=

USA.gov is the U.S. government's official web portal to all federal, state and local government web resources and services.